createdAt,value
2018-01-21T00:01:01.634Z,1.30
2018-01-21T00:03:29.217Z,1.37
2018-01-21T00:05:57.869Z,1.23
2018-01-21T00:08:26.309Z,1.23
2018-01-21T00:10:54.370Z,1.60
2018-01-21T00:13:21.930Z,1.53
2018-01-21T00:15:49.494Z,1.23
2018-01-21T00:18:18.221Z,1.43
2018-01-21T00:20:46.099Z,1.43
2018-01-21T00:23:13.702Z,1.17
2018-01-21T00:25:42.027Z,1.40
2018-01-21T00:28:09.615Z,1.07
2018-01-21T00:30:37.198Z,1.60
2018-01-21T00:33:05.547Z,1.20
2018-01-21T00:35:33.121Z,1.40
2018-01-21T00:38:00.706Z,1.30
2018-01-21T00:40:29.003Z,1.30
2018-01-21T00:42:58.716Z,1.37
2018-01-21T00:45:26.299Z,1.30
2018-01-21T00:47:53.966Z,1.03
2018-01-21T00:50:22.294Z,1.10
2018-01-21T00:52:50.074Z,1.30
2018-01-21T00:55:17.662Z,1.00
2018-01-21T00:57:45.314Z,1.20
2018-01-21T01:00:12.966Z,1.17
2018-01-21T01:02:40.561Z,1.10
2018-01-21T01:05:08.934Z,1.20
2018-01-21T01:07:37.296Z,1.50
2018-01-21T01:10:04.851Z,1.03
2018-01-21T01:12:32.460Z,1.37
2018-01-21T01:15:00.055Z,1.20
2018-01-21T01:17:27.649Z,1.00
2018-01-21T01:19:55.994Z,1.20
2018-01-21T01:22:23.596Z,1.07
2018-01-21T01:24:51.928Z,1.40
2018-01-21T01:27:19.586Z,1.20
2018-01-21T01:29:47.187Z,1.50
2018-01-21T01:32:21.203Z,1.30
2018-01-21T01:34:49.532Z,1.17
2018-01-21T01:37:17.195Z,1.10
2018-01-21T01:39:44.750Z,1.17
2018-01-21T01:42:12.408Z,1.00
2018-01-21T01:44:39.996Z,1.10
2018-01-21T01:47:07.596Z,1.40
2018-01-21T01:49:35.150Z,1.10
2018-01-21T01:52:03.043Z,1.20
2018-01-21T01:54:31.419Z,1.40
2018-01-21T01:56:59.011Z,1.00
2018-01-21T01:59:27.330Z,1.20
2018-01-21T02:01:54.914Z,1.27
2018-01-21T02:04:22.465Z,1.17
2018-01-21T02:06:50.029Z,1.03
2018-01-21T02:09:17.591Z,1.17
2018-01-21T02:11:45.186Z,1.20
2018-01-21T02:14:13.501Z,1.20
2018-01-21T02:16:41.078Z,1.03
2018-01-21T02:19:08.727Z,1.13
2018-01-21T02:21:36.293Z,0.90
2018-01-21T02:24:03.846Z,0.90
2018-01-21T02:26:31.401Z,1.00
2018-01-21T02:28:58.961Z,0.97
2018-01-21T02:31:26.510Z,1.00
2018-01-21T02:33:54.119Z,1.10
2018-01-21T02:36:21.685Z,1.20
2018-01-21T02:38:50.031Z,0.90
2018-01-21T02:41:17.607Z,1.10
2018-01-21T02:43:45.231Z,0.90
2018-01-21T02:46:12.866Z,1.17
2018-01-21T02:48:40.442Z,0.70
2018-01-21T02:51:08.199Z,1.20
2018-01-21T02:53:35.770Z,1.03
2018-01-21T02:56:04.141Z,1.20
2018-01-21T02:58:32.716Z,1.00
2018-01-21T03:01:01.135Z,1.10
2018-01-21T03:03:29.493Z,1.20
2018-01-21T03:05:57.145Z,0.90
2018-01-21T03:08:25.530Z,0.73
2018-01-21T03:10:53.094Z,1.30
2018-01-21T03:13:20.682Z,0.93
2018-01-21T03:15:48.384Z,1.30
2018-01-21T03:18:15.974Z,1.03
2018-01-21T03:20:43.574Z,0.87
2018-01-21T03:23:11.934Z,0.90
2018-01-21T03:25:39.512Z,1.00
2018-01-21T03:28:09.052Z,1.00
2018-01-21T03:30:37.738Z,0.80
2018-01-21T03:33:05.328Z,0.90
2018-01-21T03:35:33.151Z,1.10
2018-01-21T03:38:00.810Z,0.80
2018-01-21T03:40:28.396Z,1.00
2018-01-21T03:42:55.986Z,0.97
2018-01-21T03:45:24.308Z,1.00
2018-01-21T03:47:51.966Z,1.00
2018-01-21T03:50:19.522Z,1.00
2018-01-21T03:52:47.103Z,0.97
2018-01-21T03:55:14.652Z,0.77
2018-01-21T03:57:42.245Z,1.00
2018-01-21T04:00:09.807Z,0.80
2018-01-21T04:02:38.158Z,1.00
2018-01-21T04:05:05.819Z,0.77
2018-01-21T04:07:34.994Z,0.90
2018-01-21T04:10:02.564Z,0.90
2018-01-21T04:12:30.614Z,0.77
2018-01-21T04:14:58.817Z,0.90
2018-01-21T04:18:50.496Z,0.87
2018-01-21T04:21:18.764Z,1.00
2018-01-21T04:23:46.379Z,0.70
2018-01-21T04:26:13.938Z,1.00
2018-01-21T04:28:41.494Z,0.90
2018-01-21T04:31:09.131Z,0.73
2018-01-21T04:33:36.678Z,0.90
2018-01-21T04:36:04.247Z,1.00
2018-01-21T04:38:31.911Z,0.93
2018-01-21T04:40:59.565Z,0.80
2018-01-21T04:43:27.110Z,0.70
2018-01-21T04:45:54.667Z,0.97
2018-01-21T04:48:22.226Z,0.87
2018-01-21T04:50:49.790Z,0.70
2018-01-21T04:53:17.345Z,1.03
2018-01-21T04:55:44.898Z,0.60
2018-01-21T04:58:12.447Z,0.90
2018-01-21T05:00:39.994Z,0.77
2018-01-21T05:03:07.559Z,0.90
2018-01-21T05:05:35.144Z,1.10
2018-01-21T05:08:02.703Z,0.63
2018-01-21T05:10:30.258Z,0.93
2018-01-21T05:12:57.928Z,0.87
2018-01-21T05:15:25.586Z,0.93
2018-01-21T05:17:53.183Z,0.70
2018-01-21T05:20:21.605Z,0.80
2018-01-21T05:22:49.183Z,0.80
2018-01-21T05:25:16.838Z,1.00
2018-01-21T05:27:44.412Z,0.70
2018-01-21T05:30:11.975Z,0.83
2018-01-21T05:32:39.546Z,0.80
2018-01-21T05:35:07.102Z,0.87
2018-01-21T05:37:34.717Z,0.60
2018-01-21T05:40:02.382Z,0.90
2018-01-21T05:42:29.947Z,0.70
2018-01-21T05:44:57.518Z,0.83
2018-01-21T05:47:25.083Z,0.67
2018-01-21T05:49:52.659Z,0.87
2018-01-21T05:52:20.991Z,0.70
2018-01-21T05:54:48.572Z,0.80
2018-01-21T05:57:16.214Z,0.70
2018-01-21T05:59:43.794Z,0.80
2018-01-21T06:02:11.360Z,0.67
2018-01-21T06:04:38.974Z,0.97
2018-01-21T06:07:06.528Z,1.00
2018-01-21T06:09:34.206Z,0.70
2018-01-21T06:12:01.759Z,0.77
2018-01-21T06:14:29.429Z,0.80
2018-01-21T06:16:56.986Z,0.60
2018-01-21T06:19:24.561Z,0.70
2018-01-21T06:21:52.127Z,0.60
2018-01-21T06:24:19.706Z,0.80
2018-01-21T06:26:48.131Z,0.60
2018-01-21T06:29:15.711Z,0.60
2018-01-21T06:31:44.058Z,0.77
2018-01-21T06:34:11.621Z,0.70
2018-01-21T06:36:39.205Z,0.60
2018-01-21T06:39:06.779Z,0.90
2018-01-21T06:41:34.369Z,0.60
2018-01-21T06:44:01.928Z,0.83
2018-01-21T06:46:29.506Z,0.50
2018-01-21T06:48:57.066Z,0.57
2018-01-21T06:51:24.730Z,0.87
2018-01-21T06:53:52.391Z,0.50
2018-01-21T06:56:19.969Z,0.70
2018-01-21T06:58:47.517Z,0.53
2018-01-21T07:01:15.103Z,0.70
2018-01-21T07:03:43.442Z,0.60
2018-01-21T07:06:11.022Z,0.60
2018-01-21T07:08:38.666Z,0.60
2018-01-21T07:11:06.426Z,0.77
2018-01-21T07:13:34.027Z,0.53
2018-01-21T07:16:01.648Z,0.67
2018-01-21T07:18:29.214Z,0.63
2018-01-21T07:20:56.787Z,0.70
2018-01-21T07:23:24.447Z,0.70
2018-01-21T07:25:52.034Z,0.77
2018-01-21T07:28:20.363Z,0.60
2018-01-21T07:30:47.950Z,0.60
2018-01-21T07:33:15.517Z,0.70
2018-01-21T07:35:43.881Z,0.73
2018-01-21T07:38:11.502Z,0.40
2018-01-21T07:40:39.080Z,0.57
2018-01-21T07:43:06.677Z,0.70
2018-01-21T07:45:35.004Z,0.60
2018-01-21T07:48:02.602Z,0.60
2018-01-21T07:50:30.947Z,0.57
2018-01-21T07:52:58.535Z,0.70
2018-01-21T07:55:26.972Z,0.97
2018-01-21T07:57:54.563Z,0.60
2018-01-21T08:00:22.123Z,0.70
2018-01-21T08:02:49.770Z,0.63
2018-01-21T08:05:17.407Z,0.53
2018-01-21T08:07:44.994Z,0.60
2018-01-21T08:10:12.574Z,0.70
2018-01-21T08:12:41.012Z,0.33
2018-01-21T08:15:08.578Z,0.70
2018-01-21T08:17:36.218Z,0.80
2018-01-21T08:20:03.782Z,0.60
2018-01-21T08:22:31.378Z,0.60
2018-01-21T08:24:59.821Z,0.40
2018-01-21T08:27:27.483Z,0.40
2018-01-21T08:29:55.052Z,0.47
2018-01-21T08:32:22.638Z,0.77
2018-01-21T08:34:56.711Z,0.70
2018-01-21T08:37:29.862Z,0.60
2018-01-21T08:40:02.998Z,0.40
2018-01-21T08:42:34.447Z,0.50
2018-01-21T08:45:02.022Z,0.60
2018-01-21T08:47:29.670Z,0.50
2018-01-21T08:49:57.236Z,0.50
2018-01-21T08:52:24.807Z,0.50
2018-01-21T08:54:53.159Z,0.73
2018-01-21T08:57:20.739Z,0.50
2018-01-21T08:59:49.070Z,0.60
2018-01-21T09:02:16.647Z,0.67
2018-01-21T09:04:44.226Z,0.50
2018-01-21T09:07:12.570Z,0.50
2018-01-21T09:09:40.240Z,0.47
2018-01-21T09:12:07.814Z,0.50
2018-01-21T09:14:36.205Z,0.50
2018-01-21T09:17:04.588Z,0.40
2018-01-21T09:19:32.951Z,0.30
2018-01-21T09:22:01.307Z,0.53
2018-01-21T09:24:28.927Z,0.60
2018-01-21T09:26:56.493Z,0.47
2018-01-21T09:29:24.075Z,0.40
2018-01-21T09:31:51.644Z,0.67
2018-01-21T09:34:19.243Z,0.33
2018-01-21T09:36:47.587Z,0.40
2018-01-21T09:39:15.233Z,0.43
2018-01-21T09:41:42.902Z,0.40
2018-01-21T09:44:10.490Z,0.53
2018-01-21T09:46:38.833Z,0.43
2018-01-21T09:49:06.414Z,0.40
2018-01-21T09:51:34.763Z,0.33
2018-01-21T09:54:02.364Z,0.47
2018-01-21T09:56:30.700Z,0.60
2018-01-21T09:58:58.357Z,0.50
2018-01-21T10:01:25.972Z,0.43
2018-01-21T10:03:53.652Z,0.47
2018-01-21T10:06:21.234Z,0.50
2018-01-21T10:08:48.815Z,0.70
2018-01-21T10:11:16.527Z,0.50
2018-01-21T10:13:44.107Z,0.50
2018-01-21T10:16:11.699Z,0.50
2018-01-21T10:18:40.040Z,0.30
2018-01-21T10:21:07.635Z,0.50
2018-01-21T10:23:36.087Z,0.40
2018-01-21T10:26:03.683Z,0.50
2018-01-21T10:28:32.031Z,0.40
2018-01-21T10:30:59.625Z,0.40
2018-01-21T10:33:28.043Z,0.30
2018-01-21T10:35:55.639Z,0.60
2018-01-21T10:38:23.209Z,0.40
2018-01-21T10:40:51.566Z,0.37
2018-01-21T10:43:19.137Z,0.50
2018-01-21T10:45:47.478Z,0.40
2018-01-21T10:48:15.067Z,0.40
2018-01-21T10:50:42.677Z,0.50
2018-01-21T10:53:10.237Z,0.50
2018-01-21T10:55:37.836Z,0.37
2018-01-21T10:58:05.471Z,0.37
2018-01-21T11:00:38.624Z,0.47
2018-01-21T11:03:06.203Z,0.50
2018-01-21T11:05:33.786Z,0.40
2018-01-21T11:08:01.523Z,0.30
2018-01-21T11:10:29.103Z,0.40
2018-01-21T11:12:56.692Z,0.40
2018-01-21T11:15:25.148Z,0.40
2018-01-21T11:17:52.810Z,0.47
2018-01-21T11:23:19.941Z,0.53
2018-01-21T11:25:47.572Z,0.40
2018-01-21T11:28:15.915Z,0.30
2018-01-21T11:30:43.563Z,0.30
2018-01-21T11:33:11.147Z,0.40
2018-01-21T11:35:38.909Z,0.40
2018-01-21T11:38:08.782Z,0.40
2018-01-21T11:40:37.274Z,0.47
2018-01-21T11:43:05.019Z,0.23
2018-01-21T11:45:32.587Z,0.43
2018-01-21T11:48:00.171Z,0.40
2018-01-21T11:50:27.744Z,0.40
2018-01-21T11:52:56.098Z,0.47
2018-01-21T11:55:23.836Z,0.50
2018-01-21T11:57:51.482Z,0.40
2018-01-21T12:00:19.224Z,0.27
2018-01-21T12:02:46.876Z,0.47
2018-01-21T12:05:15.411Z,0.53
2018-01-21T12:07:43.002Z,0.37
2018-01-21T12:10:11.366Z,0.30
2018-01-21T12:12:40.443Z,0.30
2018-01-21T12:15:08.080Z,0.40
2018-01-21T12:17:35.652Z,0.40
2018-01-21T12:20:04.272Z,0.40
2018-01-21T12:22:32.181Z,0.40
2018-01-21T12:25:00.148Z,0.30
2018-01-21T12:27:28.318Z,0.20
2018-01-21T12:29:56.053Z,0.40
2018-01-21T12:32:24.049Z,0.60
2018-01-21T12:34:52.633Z,0.30
2018-01-21T12:37:20.394Z,0.40
2018-01-21T12:39:48.540Z,0.50
2018-01-21T12:42:16.237Z,0.30
2018-01-21T12:44:44.907Z,0.40
2018-01-21T12:47:12.772Z,0.33
2018-01-21T12:49:40.641Z,0.40
2018-01-21T12:52:11.488Z,0.33
2018-01-21T12:54:39.452Z,0.40
2018-01-21T12:57:07.318Z,0.33
2018-01-21T12:59:35.164Z,0.40
2018-01-21T13:02:03.139Z,0.50
2018-01-21T13:04:31.770Z,0.30
2018-01-21T13:07:00.708Z,0.40
2018-01-21T13:09:28.779Z,0.30
2018-01-21T13:11:57.668Z,0.30
2018-01-21T13:14:25.334Z,0.30
2018-01-21T13:16:52.972Z,0.33
2018-01-21T13:19:21.263Z,0.40
2018-01-21T13:21:49.443Z,0.30
2018-01-21T13:24:18.226Z,0.27
2018-01-21T13:26:46.031Z,0.40
2018-01-21T13:29:13.875Z,0.30
2018-01-21T13:31:42.025Z,0.40
2018-01-21T13:34:10.046Z,0.30
2018-01-21T13:36:38.458Z,0.30
2018-01-21T13:39:06.556Z,0.17
2018-01-21T13:41:34.561Z,0.30
2018-01-21T13:44:03.000Z,0.33
2018-01-21T13:46:31.566Z,0.50
2018-01-21T13:48:59.355Z,0.30
2018-01-21T13:51:26.946Z,0.30
2018-01-21T13:53:55.279Z,0.60
2018-01-21T13:56:23.228Z,0.33
2018-01-21T13:58:51.004Z,0.20
2018-01-21T14:01:20.544Z,0.47
2018-01-21T14:03:50.468Z,0.37
2018-01-21T14:06:18.868Z,0.20
2018-01-21T14:08:46.452Z,0.40
2018-01-21T14:11:14.043Z,0.30
2018-01-21T14:13:41.681Z,0.60
2018-01-21T14:16:09.262Z,0.40
2018-01-21T14:18:36.894Z,0.43
2018-01-21T14:21:04.551Z,0.80
2018-01-21T14:23:32.155Z,0.70
2018-01-21T14:25:59.728Z,0.90
2018-01-21T14:28:27.316Z,0.90
2018-01-21T14:30:54.899Z,0.60
2018-01-21T14:33:22.494Z,1.00
2018-01-21T14:35:50.828Z,0.80
2018-01-21T14:38:18.622Z,0.80
2018-01-21T14:40:46.215Z,0.93
2018-01-21T14:43:13.877Z,0.87
2018-01-21T14:45:41.479Z,0.90
2018-01-21T14:48:09.159Z,0.77
2018-01-21T14:50:36.750Z,0.90
2018-01-21T14:53:04.306Z,0.60
2018-01-21T14:55:32.297Z,0.60
2018-01-21T14:58:00.006Z,1.10
2018-01-21T15:00:27.718Z,0.90
2018-01-21T15:02:56.125Z,0.90
2018-01-21T15:05:23.675Z,0.70
2018-01-21T15:07:51.420Z,0.60
2018-01-21T15:10:18.983Z,0.97
2018-01-21T15:12:46.563Z,0.80
2018-01-21T15:15:14.144Z,0.70
2018-01-21T15:17:42.479Z,1.17
2018-01-21T15:20:10.061Z,0.90
2018-01-21T15:22:37.654Z,1.40
2018-01-21T15:25:05.991Z,1.17
2018-01-21T15:27:33.567Z,1.27
2018-01-21T15:30:01.431Z,1.03
2018-01-21T15:32:29.784Z,1.17
2018-01-21T15:34:57.396Z,1.00
2018-01-21T15:37:25.000Z,1.37
2018-01-21T15:39:52.595Z,1.50
2018-01-21T15:42:20.938Z,1.30
2018-01-21T15:44:48.654Z,1.63
2018-01-21T15:47:16.331Z,1.37
2018-01-21T15:49:44.176Z,1.50
2018-01-21T15:52:11.873Z,1.70
2018-01-21T15:54:39.542Z,1.70
2018-01-21T15:57:07.105Z,1.23
2018-01-21T15:59:34.674Z,1.80
2018-01-21T16:02:03.763Z,1.60
2018-01-21T16:04:31.396Z,1.30
2018-01-21T16:06:58.992Z,1.63
2018-01-21T16:09:27.424Z,1.40
2018-01-21T16:11:55.836Z,1.70
2018-01-21T16:14:23.418Z,1.30
2018-01-21T16:16:51.868Z,1.40
2018-01-21T16:19:19.512Z,1.43
2018-01-21T16:21:47.173Z,1.80
2018-01-21T16:24:14.737Z,1.83
2018-01-21T16:26:42.353Z,1.90
2018-01-21T16:29:09.952Z,2.47
2018-01-21T16:31:37.540Z,2.63
2018-01-21T16:34:05.159Z,46.03
2018-01-21T16:36:32.844Z,17.13
2018-01-21T16:39:01.336Z,13.60
2018-01-21T16:41:29.259Z,14.23
2018-01-21T16:43:57.882Z,12.83
2018-01-21T16:46:25.520Z,12.23
2018-01-21T16:48:53.113Z,13.17
2018-01-21T16:51:21.456Z,12.77
2018-01-21T16:53:49.112Z,12.90
2018-01-21T16:56:16.881Z,11.37
2018-01-21T16:58:44.459Z,13.30
2018-01-21T17:01:12.023Z,12.43
2018-01-21T17:03:39.586Z,12.77
2018-01-21T17:06:07.156Z,12.47
2018-01-21T17:08:35.578Z,10.93
2018-01-21T17:11:03.152Z,13.37
2018-01-21T17:13:30.747Z,12.20
2018-01-21T17:15:58.311Z,11.10
2018-01-21T17:18:29.078Z,11.00
2018-01-21T17:20:56.750Z,10.43
2018-01-21T17:23:24.330Z,10.27
2018-01-21T17:25:51.887Z,9.83
2018-01-21T17:28:19.499Z,10.20
2018-01-21T17:30:47.065Z,10.63
2018-01-21T17:33:14.652Z,11.17
2018-01-21T17:35:42.211Z,10.23
2018-01-21T17:38:11.212Z,10.13
2018-01-21T17:40:38.825Z,10.07
2018-01-21T17:43:06.396Z,9.93
2018-01-21T17:45:33.955Z,9.67
2018-01-21T17:48:01.531Z,9.60
2018-01-21T17:50:29.274Z,9.10
2018-01-21T17:52:56.858Z,9.27
2018-01-21T17:55:24.422Z,9.23
2018-01-21T17:57:52.002Z,9.40
2018-01-21T18:00:20.939Z,9.30
2018-01-21T18:02:49.369Z,8.63
2018-01-21T18:05:16.930Z,8.47
2018-01-21T18:07:45.867Z,7.97
2018-01-21T18:10:13.485Z,8.10
2018-01-21T18:12:41.838Z,8.27
2018-01-21T18:15:09.409Z,8.20
2018-01-21T18:17:36.984Z,8.07
2018-01-21T18:20:05.306Z,7.93
2018-01-21T18:22:32.894Z,8.37
2018-01-21T18:25:00.446Z,8.63
2018-01-21T18:27:28.800Z,7.93
2018-01-21T18:29:56.358Z,8.00
2018-01-21T18:32:23.946Z,7.47
2018-01-21T18:34:51.571Z,6.73
2018-01-21T18:37:19.158Z,19.87
2018-01-21T18:39:46.795Z,16.47
2018-01-21T18:42:15.258Z,13.27
2018-01-21T18:44:42.824Z,14.33
2018-01-21T18:47:10.430Z,15.00
2018-01-21T18:49:38.764Z,14.40
2018-01-21T18:52:06.352Z,13.70
2018-01-21T18:54:33.982Z,13.47
2018-01-21T18:57:01.581Z,14.60
2018-01-21T18:59:29.156Z,12.90
2018-01-21T19:01:57.501Z,13.23
2018-01-21T19:04:25.134Z,11.30
2018-01-21T19:06:52.797Z,12.80
2018-01-21T19:09:20.359Z,11.67
2018-01-21T19:11:47.941Z,11.80
2018-01-21T19:14:15.562Z,12.40
2018-01-21T19:16:43.145Z,11.87
2018-01-21T19:19:10.722Z,10.53
2018-01-21T19:21:38.344Z,11.33
2018-01-21T19:24:05.898Z,12.43
2018-01-21T19:26:33.479Z,11.03
2018-01-21T19:29:01.107Z,11.37
2018-01-21T19:31:28.683Z,10.90
2018-01-21T19:33:56.276Z,11.70
2018-01-21T19:36:24.674Z,11.10
2018-01-21T19:38:55.911Z,10.93
2018-01-21T19:44:37.310Z,11.37
2018-01-21T19:47:05.982Z,10.67
2018-01-21T19:49:33.664Z,10.20
2018-01-21T19:52:02.026Z,10.00
2018-01-21T19:54:29.620Z,10.43
2018-01-21T19:56:57.178Z,9.93
2018-01-21T19:59:24.858Z,10.03
2018-01-21T20:01:52.419Z,10.47
2018-01-21T20:04:20.078Z,9.77
2018-01-21T20:06:47.637Z,9.27
2018-01-21T20:09:15.243Z,10.10
2018-01-21T20:11:42.829Z,8.97
2018-01-21T20:14:10.435Z,10.07
2018-01-21T20:16:38.009Z,9.67
2018-01-21T20:19:06.458Z,9.03
2018-01-21T20:21:34.024Z,9.43
2018-01-21T20:24:01.606Z,9.37
2018-01-21T20:26:29.935Z,9.17
2018-01-21T20:28:57.534Z,9.00
2018-01-21T20:31:25.113Z,8.87
2018-01-21T20:33:53.466Z,8.73
2018-01-21T20:36:21.298Z,8.60
2018-01-21T20:38:48.891Z,8.70
2018-01-21T20:41:16.557Z,8.03
2018-01-21T20:43:44.908Z,7.87
2018-01-21T20:46:13.248Z,8.40
2018-01-21T20:48:40.927Z,8.97
2018-01-21T20:51:14.036Z,7.83
2018-01-21T20:53:47.276Z,8.00
2018-01-21T20:56:15.398Z,8.95
2018-01-21T20:58:43.422Z,8.13
2018-01-21T21:01:11.403Z,7.93
2018-01-21T21:03:39.011Z,7.87
2018-01-21T21:06:07.230Z,8.40
2018-01-21T21:08:34.796Z,7.93
2018-01-21T21:11:02.363Z,7.47
2018-01-21T21:13:30.011Z,7.50
2018-01-21T21:15:57.582Z,7.47
2018-01-21T21:18:25.157Z,7.30
2018-01-21T21:20:52.733Z,8.07
2018-01-21T21:23:20.290Z,7.30
2018-01-21T21:25:47.961Z,8.07
2018-01-21T21:28:17.916Z,7.10
2018-01-21T21:30:45.527Z,6.70
2018-01-21T21:33:13.243Z,7.50
2018-01-21T21:35:43.281Z,8.50
2018-01-21T21:38:11.525Z,7.17
2018-01-21T21:40:41.364Z,7.33
2018-01-21T21:43:12.167Z,7.00
2018-01-21T21:45:40.239Z,6.80
2018-01-21T21:48:07.798Z,6.10
2018-01-21T21:50:35.872Z,6.73
2018-01-21T21:53:03.633Z,6.47
2018-01-21T21:55:31.356Z,6.80
2018-01-21T21:58:01.817Z,6.63
2018-01-21T22:00:30.224Z,6.93
2018-01-21T22:02:57.778Z,6.53
2018-01-21T22:05:25.358Z,7.00
2018-01-21T22:07:53.071Z,6.23
2018-01-21T22:10:20.650Z,6.40
2018-01-21T22:12:50.563Z,6.73
2018-01-21T22:15:20.043Z,6.50
2018-01-21T22:17:50.372Z,6.60
2018-01-21T22:20:19.153Z,6.67
2018-01-21T22:22:46.729Z,5.73
2018-01-21T22:25:14.381Z,6.63
2018-01-21T22:27:41.966Z,6.13
2018-01-21T22:30:09.600Z,6.27
2018-01-21T22:32:37.189Z,5.70
2018-01-21T22:35:05.762Z,5.77
2018-01-21T22:37:33.365Z,5.90
2018-01-21T22:40:02.381Z,5.80
2018-01-21T22:42:31.066Z,5.97
2018-01-21T22:44:59.134Z,5.67
2018-01-21T22:47:26.760Z,6.03
2018-01-21T22:49:54.438Z,6.30
2018-01-21T22:52:22.002Z,5.60
2018-01-21T22:54:49.582Z,5.37
2018-01-21T22:57:17.143Z,5.90
2018-01-21T22:59:44.735Z,6.17
2018-01-21T23:02:12.290Z,5.27
2018-01-21T23:04:39.919Z,5.27
2018-01-21T23:07:07.498Z,5.60
2018-01-21T23:09:35.096Z,5.40
2018-01-21T23:12:02.674Z,5.53
2018-01-21T23:14:30.255Z,5.27
2018-01-21T23:16:57.822Z,4.87
2018-01-21T23:19:25.420Z,5.50
2018-01-21T23:21:53.758Z,5.87
2018-01-21T23:24:21.349Z,5.37
2018-01-21T23:26:49.739Z,5.57
2018-01-21T23:29:17.289Z,5.70
2018-01-21T23:31:45.636Z,5.87
2018-01-21T23:34:13.275Z,5.10
2018-01-21T23:36:40.877Z,5.53
2018-01-21T23:39:08.458Z,5.17
2018-01-21T23:41:36.017Z,5.70
2018-01-21T23:44:03.606Z,5.13
2018-01-21T23:46:31.259Z,5.73
2018-01-21T23:48:58.831Z,5.20
2018-01-21T23:51:26.433Z,5.23
2018-01-21T23:53:54.767Z,5.00
2018-01-21T23:56:22.346Z,4.90
2018-01-21T23:58:50.236Z,5.70
